Buri, Brazil
Current Conditions -  °F | °C
As of 4:00 PM on Friday 24 Oct 2014 (Local Time) from SBSV Reporting Station
Few Clouds Few Clouds  
Wind Chill: 81°   Ceiling: Unl
Heat Index: 83°   Visibility: 6mi
Dew Point: 66°   Wind: 10mph
Humidity: 61%   Direction: 130°SE
Pressure: 29.91"   Gusts: NA
Location:  12.52°S, 38.27°W
Report Text: SBSV 241900Z 13009KT 9999 FEW017 27/19 Q1013
Loading
Personal Weather Stations






























Interactive Weather Map
Tropical Storm Tracking
New forecast layout! Learn more

10-Day Weather Forecast

Advertisements
Track Severe Weather on mobile